Time;durP1;ratioP1;P1;durP2;ratioP2;P2;SDS_P1;SDS_P2;PMS_P1;PMS_P2;Temp;Humidity;BMP_temperature;BMP_pressure;BME280_temperature;BME280_humidity;BME280_pressure;Samples;Min_cycle;Max_cycle;Signal;HPM_P1;HPM_P2
2022/04/29 00:00:24;;;;;;;6.93;6.23;;;9.00;99.90;;;;;;5146722;27;20645;-84
2022/04/29 00:02:52;;;;;;;6.03;5.63;;;8.70;99.90;;;;;;5144323;27;20633;-84
2022/04/29 00:05:19;;;;;;;6.20;5.67;;;8.80;99.90;;;;;;5147945;27;20625;-84
2022/04/29 00:07:48;;;;;;;6.33;5.93;;;8.50;99.90;;;;;;5143331;27;20776;-85
2022/04/29 00:10:16;;;;;;;7.17;6.63;;;8.40;99.90;;;;;;5147372;27;20656;-85
2022/04/29 00:12:46;;;;;;;6.67;6.27;;;8.60;99.90;;;;;;5148360;27;20656;-85
2022/04/29 00:15:14;;;;;;;6.40;5.90;;;8.20;99.90;;;;;;5146649;27;20618;-85
2022/04/29 00:17:41;;;;;;;7.00;6.30;;;8.20;99.90;;;;;;5148498;27;20626;-85
2022/04/29 00:20:10;;;;;;;7.20;6.50;;;8.80;99.90;;;;;;5144413;27;20646;-85
2022/04/29 00:22:37;;;;;;;7.27;6.77;;;8.80;99.90;;;;;;5148352;27;21273;-85
2022/04/29 00:25:07;;;;;;;7.63;6.63;;;8.70;99.90;;;;;;5145364;27;20633;-85
2022/04/29 00:27:34;;;;;;;6.73;6.33;;;8.70;99.90;;;;;;5146621;27;20634;-85
2022/04/29 00:30:01;;;;;;;9.00;6.93;;;8.10;99.90;;;;;;5139407;27;20652;-84
2022/04/29 00:32:27;;;;;;;6.77;6.27;;;8.50;99.90;;;;;;5148000;27;20625;-85
2022/04/29 00:34:54;;;;;;;8.03;7.40;;;8.60;99.90;;;;;;5145188;27;20609;-85
2022/04/29 00:37:21;;;;;;;7.03;6.57;;;8.00;99.90;;;;;;5148500;27;20614;-85
2022/04/29 00:39:48;;;;;;;6.93;6.43;;;8.40;99.90;;;;;;5146539;27;20652;-86
2022/04/29 00:42:17;;;;;;;6.90;6.40;;;8.40;99.90;;;;;;5146663;27;20977;-85
2022/04/29 00:44:46;;;;;;;6.83;6.33;;;8.40;99.90;;;;;;5146343;27;20632;-83
2022/04/29 00:47:16;;;;;;;8.00;7.20;;;7.80;99.90;;;;;;5144389;27;20662;-85
2022/04/29 00:49:43;;;;;;;8.57;6.77;;;8.20;99.90;;;;;;5146907;27;20645;-85
2022/04/29 00:52:12;;;;;;;7.63;7.07;;;8.00;99.90;;;;;;5141141;27;20629;-85
2022/04/29 00:54:42;;;;;;;7.77;7.07;;;8.30;99.90;;;;;;5147516;27;21226;-85
2022/04/29 00:57:13;;;;;;;8.00;7.20;;;8.10;99.90;;;;;;5145613;27;20618;-84
2022/04/29 00:59:50;;;;;;;8.03;7.43;;;8.20;99.90;;;;;;5147700;27;20645;-85
2022/04/29 01:02:17;;;;;;;8.00;7.40;;;8.10;99.90;;;;;;5146841;27;20624;-85
2022/04/29 01:04:59;;;;;;;7.90;7.20;;;7.60;99.90;;;;;;5147785;27;20610;-85
2022/04/29 01:07:26;;;;;;;7.97;7.30;;;7.90;99.90;;;;;;5142608;27;20669;-85
2022/04/29 01:09:53;;;;;;;7.50;7.00;;;8.00;99.90;;;;;;5144177;27;20649;-86
2022/04/29 01:12:21;;;;;;;8.33;7.67;;;8.00;99.90;;;;;;5142129;27;21211;-85
2022/04/29 01:14:49;;;;;;;8.67;8.10;;;8.10;99.90;;;;;;5142225;27;20983;-86
2022/04/29 01:17:16;;;;;;;9.73;8.87;;;8.20;99.90;;;;;;5147830;27;20614;-85
2022/04/29 01:19:42;;;;;;;7.67;6.97;;;7.60;99.90;;;;;;5150475;27;20644;-87
2022/04/29 01:22:11;;;;;;;7.50;7.00;;;7.90;99.90;;;;;;5142412;27;20621;-87
2022/04/29 01:24:38;;;;;;;8.13;7.60;;;8.10;99.90;;;;;;5145660;27;20722;-87
2022/04/29 01:27:10;;;;;;;8.50;7.83;;;7.70;99.90;;;;;;5148456;27;20657;-87
2022/04/29 01:29:38;;;;;;;8.43;7.77;;;7.80;99.90;;;;;;5146511;27;20657;-87
2022/04/29 01:32:06;;;;;;;9.87;9.07;;;7.80;99.90;;;;;;5146828;27;20621;-87
2022/04/29 01:34:33;;;;;;;8.90;8.10;;;7.70;99.90;;;;;;5148058;27;20636;-87
2022/04/29 01:37:00;;;;;;;7.93;7.43;;;7.70;99.90;;;;;;5148622;27;20666;-88
2022/04/29 01:39:28;;;;;;;8.80;8.23;;;7.20;99.90;;;;;;5144963;27;20637;-88
2022/04/29 01:41:55;;;;;;;7.97;7.17;;;7.60;99.90;;;;;;5138055;27;21152;-86
2022/04/29 01:44:22;;;;;;;8.80;8.20;;;7.60;99.90;;;;;;5146820;27;20969;-86
2022/04/29 01:46:49;;;;;;;8.43;7.93;;;7.60;99.90;;;;;;5149787;27;20669;-87
2022/04/29 01:49:16;;;;;;;9.47;8.43;;;7.40;99.90;;;;;;5138476;27;20611;-85
2022/04/29 01:51:43;;;;;;;8.93;8.43;;;7.50;99.90;;;;;;5142022;27;20851;-85
2022/04/29 01:54:11;;;;;;;9.00;8.20;;;7.50;99.90;;;;;;5149454;27;20622;-85
2022/04/29 01:56:39;;;;;;;8.83;8.23;;;7.50;99.90;;;;;;5145259;27;20663;-85
2022/04/29 01:59:06;;;;;;;8.30;7.70;;;7.30;99.90;;;;;;5149125;27;20620;-85
2022/04/29 02:01:33;;;;;;;10.20;9.47;;;7.70;99.90;;;;;;5147859;27;21017;-85
2022/04/29 02:04:01;;;;;;;9.33;8.53;;;7.30;99.90;;;;;;5155321;27;20703;-85
2022/04/29 02:06:28;;;;;;;10.13;9.43;;;7.50;99.90;;;;;;5149872;27;20721;-85
2022/04/29 02:08:55;;;;;;;9.57;8.90;;;7.10;99.90;;;;;;5147464;27;20673;-85
2022/04/29 02:11:22;;;;;;;11.73;9.10;;;7.00;99.90;;;;;;5146878;27;20665;-85
2022/04/29 02:13:50;;;;;;;8.93;8.30;;;7.20;99.90;;;;;;5149717;27;20611;-85
2022/04/29 02:16:18;;;;;;;9.37;8.77;;;7.00;99.90;;;;;;5146914;27;20630;-87
2022/04/29 02:18:44;;;;;;;9.73;9.03;;;7.60;99.90;;;;;;5150128;27;20648;-87
2022/04/29 02:21:11;;;;;;;9.47;8.70;;;7.40;99.90;;;;;;5148203;27;21218;-87
2022/04/29 02:23:38;;;;;;;9.20;8.50;;;6.90;99.90;;;;;;5145050;27;20610;-86
2022/04/29 02:26:05;;;;;;;9.20;8.60;;;7.50;99.90;;;;;;5148945;27;20737;-85
2022/04/29 02:28:32;;;;;;;9.60;8.90;;;7.30;99.90;;;;;;5154582;27;20628;-85
2022/04/29 02:31:00;;;;;;;10.60;9.70;;;6.90;99.90;;;;;;5146214;27;21457;-86
2022/04/29 02:33:28;;;;;;;9.77;8.97;;;6.90;99.90;;;;;;5146197;27;20662;-86
2022/04/29 02:35:55;;;;;;;9.17;8.53;;;6.80;99.90;;;;;;5144839;27;20757;-87
2022/04/29 02:38:23;;;;;;;9.60;8.80;;;6.70;99.90;;;;;;5151919;27;20644;-86
2022/04/29 02:40:50;;;;;;;8.70;8.10;;;7.10;99.90;;;;;;5150846;27;20644;-86
2022/04/29 02:43:17;;;;;;;9.37;8.47;;;7.10;99.90;;;;;;5145084;27;20640;-87
2022/04/29 02:45:46;;;;;;;9.20;8.57;;;7.30;99.90;;;;;;5153595;27;20633;-85
2022/04/29 02:48:15;;;;;;;9.37;8.77;;;7.20;99.90;;;;;;5149979;27;20658;-86
2022/04/29 02:50:42;;;;;;;9.73;9.03;;;7.20;99.90;;;;;;5146543;27;20641;-86
2022/04/29 02:53:09;;;;;;;9.73;9.13;;;7.00;99.90;;;;;;5147516;27;20626;-85
2022/04/29 02:55:36;;;;;;;8.87;8.17;;;6.70;99.90;;;;;;5153496;27;20660;-86
2022/04/29 02:58:02;;;;;;;10.03;9.17;;;6.90;99.90;;;;;;5150065;27;20625;-86
2022/04/29 03:00:29;;;;;;;9.53;8.73;;;6.50;99.90;;;;;;5148671;27;22089;-86
2022/04/29 03:02:56;;;;;;;10.20;9.50;;;6.80;99.90;;;;;;5149986;27;20622;-85
2022/04/29 03:05:24;;;;;;;9.90;9.20;;;6.80;99.90;;;;;;5155656;27;20635;-85
2022/04/29 03:07:51;;;;;;;10.17;9.40;;;6.80;99.90;;;;;;5154106;27;20661;-85
2022/04/29 03:10:17;;;;;;;9.27;8.67;;;7.00;99.90;;;;;;5150896;27;20645;-85
2022/04/29 03:12:44;;;;;;;10.07;9.37;;;6.80;99.90;;;;;;5143774;27;20971;-85
2022/04/29 03:15:18;;;;;;;10.47;9.77;;;6.90;99.90;;;;;;5153292;27;20625;-84
2022/04/29 03:20:34;;;;;;;10.40;9.70;;;6.70;99.90;;;;;;5145534;27;21013;-86
2022/04/29 03:23:03;;;;;;;13.13;10.70;;;6.60;99.90;;;;;;5150115;27;20625;-86
2022/04/29 03:25:29;;;;;;;9.80;9.00;;;6.90;99.90;;;;;;5153370;27;20630;-86
2022/04/29 03:27:56;;;;;;;10.03;9.33;;;6.80;99.90;;;;;;5155306;27;20673;-86
2022/04/29 03:30:23;;;;;;;10.20;9.30;;;7.00;99.90;;;;;;5146282;27;20657;-87
2022/04/29 03:32:53;;;;;;;9.47;8.73;;;6.50;99.90;;;;;;5143124;27;20627;-86
2022/04/29 03:35:21;;;;;;;9.60;8.70;;;6.90;99.90;;;;;;5150412;27;20637;-86
2022/04/29 03:37:51;;;;;;;10.40;9.70;;;6.50;99.90;;;;;;5140784;27;20619;-87
2022/04/29 03:40:20;;;;;;;10.23;9.47;;;6.30;99.90;;;;;;5144492;27;20641;-86
2022/04/29 03:42:47;;;;;;;9.93;9.20;;;6.80;99.90;;;;;;5149246;27;20694;-86
2022/04/29 03:45:13;;;;;;;10.90;10.20;;;6.60;99.90;;;;;;5148873;27;20625;-86
2022/04/29 03:47:40;;;;;;;9.80;9.10;;;6.30;99.90;;;;;;5145240;27;20660;-86
2022/04/29 03:50:08;;;;;;;10.17;9.40;;;6.90;99.90;;;;;;5153676;27;20737;-85
2022/04/29 03:52:34;;;;;;;10.57;9.53;;;6.50;99.90;;;;;;5149173;27;21183;-87
2022/04/29 03:55:03;;;;;;;10.10;9.50;;;6.70;99.90;;;;;;5147079;27;20628;-87
2022/04/29 03:57:30;;;;;;;10.60;9.70;;;6.80;99.90;;;;;;5148413;27;20625;-86
2022/04/29 03:59:56;;;;;;;10.70;9.90;;;6.30;99.90;;;;;;5146861;27;20672;-87
2022/04/29 04:02:23;;;;;;;10.90;10.20;;;6.30;99.90;;;;;;5146568;27;21080;-86
2022/04/29 04:04:50;;;;;;;10.20;9.50;;;6.40;99.90;;;;;;5150714;27;20621;-86
2022/04/29 04:07:17;;;;;;;10.57;9.87;;;6.50;99.90;;;;;;5148362;27;21009;-86
2022/04/29 04:09:44;;;;;;;12.10;11.20;;;6.60;99.90;;;;;;5142199;27;20661;-86
2022/04/29 04:12:13;;;;;;;12.37;11.17;;;6.60;99.90;;;;;;5144011;27;20638;-86
2022/04/29 04:14:39;;;;;;;11.17;10.20;;;6.50;99.90;;;;;;5144300;27;20715;-86
2022/04/29 04:17:07;;;;;;;11.27;10.43;;;6.20;99.90;;;;;;5147406;27;20625;-86
2022/04/29 04:19:34;;;;;;;10.67;9.97;;;6.30;99.90;;;;;;5145274;27;20698;-86
2022/04/29 04:22:01;;;;;;;11.83;11.00;;;6.30;99.90;;;;;;5144479;27;20632;-86
2022/04/29 04:24:28;;;;;;;11.57;10.77;;;6.50;99.90;;;;;;5143689;27;20633;-86
2022/04/29 04:26:55;;;;;;;11.80;11.00;;;6.60;99.90;;;;;;5146335;27;20645;-86
2022/04/29 04:29:23;;;;;;;10.60;9.80;;;6.50;99.90;;;;;;5147962;27;20740;-86
2022/04/29 04:31:51;;;;;;;11.97;11.17;;;6.20;99.90;;;;;;5151038;27;20637;-85
2022/04/29 04:37:02;;;;;;;11.27;10.53;;;6.40;99.90;;;;;;5148041;27;20571;-87
2022/04/29 04:39:29;;;;;;;11.67;10.63;;;6.80;99.90;;;;;;5143313;27;20661;-86
2022/04/29 04:41:56;;;;;;;11.33;10.53;;;6.20;99.90;;;;;;5146024;27;20983;-87
2022/04/29 04:44:25;;;;;;;11.30;10.50;;;6.30;99.90;;;;;;5148229;27;20632;-86
2022/04/29 04:46:51;;;;;;;13.43;12.37;;;6.80;99.90;;;;;;5146296;27;20742;-86
2022/04/29 04:49:18;;;;;;;11.17;10.37;;;6.80;99.90;;;;;;5147107;27;20657;-85
2022/04/29 04:51:45;;;;;;;12.80;11.90;;;6.60;99.90;;;;;;5142072;27;20641;-86
2022/04/29 04:54:12;;;;;;;12.27;11.33;;;6.80;99.90;;;;;;5147458;27;20599;-86
2022/04/29 04:56:38;;;;;;;11.90;11.10;;;6.40;99.90;;;;;;5146527;27;20617;-86
2022/04/29 04:59:05;;;;;;;12.27;11.33;;;6.50;99.90;;;;;;5149209;27;20642;-86
2022/04/29 05:01:33;;;;;;;11.57;10.77;;;7.00;99.90;;;;;;5146067;27;20687;-86
2022/04/29 05:04:00;;;;;;;13.07;12.07;;;6.80;99.90;;;;;;5146322;27;20989;-86
2022/04/29 05:06:27;;;;;;;13.07;12.07;;;7.30;99.90;;;;;;5148739;27;21066;-86
2022/04/29 05:08:55;;;;;;;13.00;12.10;;;7.30;99.90;;;;;;5140205;27;20768;-86
2022/04/29 05:11:21;;;;;;;19.33;11.87;;;7.30;99.90;;;;;;5151972;27;20656;-86
2022/04/29 05:13:48;;;;;;;12.03;11.33;;;7.50;99.90;;;;;;5143967;27;21191;-86
2022/04/29 05:16:16;;;;;;;13.00;12.03;;;7.30;99.90;;;;;;5150083;27;20617;-86
2022/04/29 05:18:44;;;;;;;13.00;12.00;;;7.40;99.90;;;;;;5142944;27;21203;-87
2022/04/29 05:21:11;;;;;;;11.70;10.90;;;7.90;99.90;;;;;;5144110;27;21596;-86
2022/04/29 05:23:38;;;;;;;12.20;11.00;;;7.80;99.90;;;;;;5145570;27;20636;-86
2022/04/29 05:26:05;;;;;;;12.80;11.90;;;7.90;99.90;;;;;;5149202;27;20647;-86
2022/04/29 05:28:31;;;;;;;12.03;11.23;;;8.00;99.90;;;;;;5145157;27;20689;-86
2022/04/29 05:30:59;;;;;;;11.67;10.77;;;8.20;99.90;;;;;;5142022;27;20649;-88
2022/04/29 05:33:26;;;;;;;12.30;11.10;;;7.90;99.90;;;;;;5150136;27;20650;-87
2022/04/29 05:35:55;;;;;;;12.97;11.87;;;7.80;99.90;;;;;;5145880;27;20622;-87
2022/04/29 05:38:22;;;;;;;12.20;11.40;;;8.00;99.90;;;;;;5147502;27;20717;-87
2022/04/29 05:43:33;;;;;;;11.97;10.97;;;8.40;99.90;;;;;;5143186;27;20577;-87
2022/04/29 05:46:00;;;;;;;13.03;11.50;;;8.60;99.90;;;;;;5150768;27;20648;-88
2022/04/29 05:48:27;;;;;;;11.33;10.23;;;8.20;99.90;;;;;;5146843;27;20666;-87
2022/04/29 05:50:55;;;;;;;12.43;11.20;;;8.30;99.90;;;;;;5150003;27;20617;-87
2022/04/29 05:53:22;;;;;;;12.10;10.90;;;8.30;99.90;;;;;;5136436;27;20662;-86
2022/04/29 05:55:48;;;;;;;11.93;11.13;;;8.20;99.90;;;;;;5140844;27;20657;-86
2022/04/29 05:58:15;;;;;;;12.00;10.93;;;8.80;99.90;;;;;;5136754;27;21143;-86
2022/04/29 06:00:42;;;;;;;12.53;11.63;;;8.50;99.90;;;;;;5142673;27;20697;-86
2022/04/29 06:03:09;;;;;;;10.40;9.63;;;9.00;99.90;;;;;;5140076;27;20626;-86
2022/04/29 06:05:36;;;;;;;11.40;10.17;;;8.30;99.90;;;;;;5141717;27;21187;-86
2022/04/29 06:08:04;;;;;;;10.30;9.50;;;8.60;99.90;;;;;;5144892;27;20980;-86
2022/04/29 06:10:31;;;;;;;10.27;9.37;;;8.80;99.90;;;;;;5147351;27;20628;-86
2022/04/29 06:12:58;;;;;;;11.70;10.80;;;8.90;99.90;;;;;;5141463;27;20626;-87
2022/04/29 06:15:25;;;;;;;11.83;10.93;;;8.70;99.90;;;;;;5144250;27;20626;-86
2022/04/29 06:17:52;;;;;;;10.90;10.17;;;8.70;99.90;;;;;;5140997;27;20648;-86
2022/04/29 06:20:19;;;;;;;10.80;9.90;;;8.70;99.90;;;;;;5139971;27;21183;-86
2022/04/29 06:22:47;;;;;;;11.27;10.37;;;9.00;99.90;;;;;;5145816;27;20989;-86
2022/04/29 06:25:17;;;;;;;11.20;10.30;;;8.70;99.90;;;;;;5141992;27;20641;-86
2022/04/29 06:27:44;;;;;;;10.13;9.40;;;9.10;99.90;;;;;;5147548;27;20664;-86
2022/04/29 06:30:12;;;;;;;11.57;10.50;;;9.50;99.90;;;;;;5140240;27;20661;-86
2022/04/29 06:32:39;;;;;;;11.07;9.97;;;9.60;99.90;;;;;;5141225;27;21157;-86
2022/04/29 06:35:07;;;;;;;11.50;10.40;;;9.40;99.90;;;;;;5144992;27;20643;-86
2022/04/29 06:37:34;;;;;;;10.53;9.53;;;10.10;99.90;;;;;;5139980;27;20660;-86
2022/04/29 06:40:01;;;;;;;10.23;9.53;;;9.90;99.90;;;;;;5145054;27;20602;-86
2022/04/29 06:42:29;;;;;;;11.67;10.80;;;10.20;99.90;;;;;;5146238;27;20648;-86
2022/04/29 06:44:56;;;;;;;10.20;9.50;;;10.10;99.90;;;;;;5147859;27;20617;-86
2022/04/29 06:47:23;;;;;;;10.83;9.87;;;10.00;99.90;;;;;;5149012;27;20661;-86
2022/04/29 06:49:51;;;;;;;11.33;9.57;;;10.10;99.90;;;;;;5145480;27;20678;-86
2022/04/29 06:52:17;;;;;;;10.00;9.07;;;10.30;99.90;;;;;;5144959;27;20673;-86
2022/04/29 06:54:44;;;;;;;10.27;9.47;;;10.40;99.90;;;;;;5144804;27;20637;-86
2022/04/29 06:57:11;;;;;;;9.90;9.13;;;10.80;99.90;;;;;;5142964;27;20675;-86
2022/04/29 06:59:39;;;;;;;9.90;8.90;;;11.10;99.90;;;;;;5147402;27;20621;-86
2022/04/29 07:02:07;;;;;;;10.60;9.67;;;11.10;99.90;;;;;;5144937;27;20629;-85
2022/04/29 07:04:34;;;;;;;11.90;9.87;;;10.80;99.90;;;;;;5142795;27;20629;-86
2022/04/29 07:07:01;;;;;;;10.23;9.47;;;11.10;99.90;;;;;;5145978;27;20663;-86
2022/04/29 07:09:28;;;;;;;10.20;9.50;;;11.20;99.90;;;;;;5143691;27;20657;-85
2022/04/29 07:11:56;;;;;;;10.60;9.47;;;11.80;99.90;;;;;;5148735;27;20628;-85
2022/04/29 07:14:23;;;;;;;8.73;8.03;;;11.90;99.90;;;;;;5144498;27;20636;-85
2022/04/29 07:16:55;;;;;;;12.20;10.17;;;11.90;99.90;;;;;;5140717;27;21003;-85
2022/04/29 07:19:22;;;;;;;10.17;9.37;;;12.20;99.90;;;;;;5148640;27;20621;-86
2022/04/29 07:21:50;;;;;;;9.43;8.63;;;12.30;99.90;;;;;;5149942;27;21305;-87
2022/04/29 07:24:18;;;;;;;9.73;8.77;;;12.10;99.90;;;;;;5143382;27;20621;-86
2022/04/29 07:26:46;;;;;;;9.97;9.10;;;12.60;99.90;;;;;;5143366;27;20650;-86
2022/04/29 07:29:13;;;;;;;9.27;8.40;;;12.80;99.90;;;;;;5145308;27;20717;-87
2022/04/29 07:31:40;;;;;;;8.93;8.23;;;12.90;99.90;;;;;;5148417;27;20625;-88
2022/04/29 07:34:08;;;;;;;10.50;8.97;;;13.00;99.90;;;;;;5146183;27;20621;-87
2022/04/29 07:42:05;;;;;;;9.80;8.90;;;13.30;99.90;;;;;;5143461;27;20739;-87
2022/04/29 07:44:33;;;;;;;8.10;7.40;;;13.50;99.90;;;;;;5147316;27;20621;-87
2022/04/29 07:47:00;;;;;;;9.77;8.77;;;13.70;99.90;;;;;;5142119;27;20728;-87
2022/04/29 07:49:31;;;;;;;8.50;7.80;;;13.80;99.90;;;;;;5120327;27;21064;-88
2022/04/29 07:51:58;;;;;;;10.50;7.90;;;13.90;99.90;;;;;;5137233;27;21236;-87
2022/04/29 07:54:25;;;;;;;9.47;8.57;;;14.00;99.90;;;;;;5142245;27;20611;-87
2022/04/29 07:56:53;;;;;;;7.70;7.00;;;14.10;99.90;;;;;;5141414;27;20641;-87
2022/04/29 07:59:20;;;;;;;10.27;8.00;;;14.20;99.90;;;;;;5145655;27;21012;-86
2022/04/29 08:01:48;;;;;;;12.00;9.47;;;14.30;99.90;;;;;;5144721;27;21198;-86
2022/04/29 08:04:15;;;;;;;10.90;8.20;;;14.40;99.90;;;;;;5145441;27;20637;-86
2022/04/29 08:06:44;;;;;;;9.10;8.30;;;14.50;99.90;;;;;;5143678;27;20657;-87
2022/04/29 08:09:10;;;;;;;8.83;8.03;;;14.50;99.90;;;;;;5141206;27;20654;-87
2022/04/29 08:11:38;;;;;;;10.67;7.50;;;14.70;99.90;;;;;;5142267;27;20660;-87
2022/04/29 08:14:06;;;;;;;9.00;7.80;;;14.90;99.90;;;;;;5147273;27;20653;-88
2022/04/29 08:16:35;;;;;;;8.53;7.63;;;15.10;99.90;;;;;;5145423;27;20648;-87
2022/04/29 08:19:02;;;;;;;7.73;7.03;;;15.20;99.90;;;;;;5138744;27;21034;-87
2022/04/29 08:21:30;;;;;;;8.27;7.57;;;15.30;99.90;;;;;;5141761;27;20609;-87
2022/04/29 08:23:59;;;;;;;9.80;9.00;;;15.30;99.70;;;;;;5154013;27;20621;-87
2022/04/29 08:26:26;;;;;;;9.20;7.53;;;15.30;99.90;;;;;;5148046;27;20620;-86
2022/04/29 08:28:54;;;;;;;8.50;7.70;;;15.40;99.90;;;;;;5144238;27;20632;-87
2022/04/29 08:31:22;;;;;;;9.37;8.17;;;15.40;99.90;;;;;;5144885;27;21054;-87
2022/04/29 08:33:49;;;;;;;9.13;8.33;;;15.50;99.90;;;;;;5150862;27;20609;-87
2022/04/29 08:36:17;;;;;;;8.43;7.70;;;15.50;99.90;;;;;;5140168;27;20625;-86
2022/04/29 08:38:44;;;;;;;8.37;7.60;;;15.60;98.90;;;;;;5139391;27;20630;-86
2022/04/29 08:41:12;;;;;;;8.67;7.87;;;15.70;97.60;;;;;;5144953;27;20632;-87
2022/04/29 08:43:41;;;;;;;8.43;7.63;;;15.90;99.90;;;;;;5138940;27;20745;-88
2022/04/29 08:46:09;;;;;;;11.10;8.93;;;16.10;99.90;;;;;;5142545;27;20768;-88
2022/04/29 08:48:37;;;;;;;9.67;8.50;;;16.30;99.90;;;;;;5146047;27;20632;-88
2022/04/29 08:51:04;;;;;;;9.10;8.20;;;16.40;99.80;;;;;;5147841;27;20769;-88
2022/04/29 08:53:34;;;;;;;9.40;8.60;;;16.60;98.80;;;;;;5141114;27;20634;-88
2022/04/29 08:58:48;;;;;;;6.00;5.50;;;16.80;92.70;;;;;;5143463;27;20787;-87
2022/04/29 09:01:16;;;;;;;11.47;7.10;;;16.90;80.10;;;;;;5143113;27;20637;-88
2022/04/29 09:03:44;;;;;;;7.73;6.60;;;17.10;80.50;;;;;;5142327;27;21014;-87
2022/04/29 09:06:12;;;;;;;5.90;5.27;;;17.20;84.50;;;;;;5138387;27;20641;-87
2022/04/29 09:08:40;;;;;;;5.13;4.63;;;17.40;79.30;;;;;;5141220;27;20634;-86
2022/04/29 09:11:07;;;;;;;6.73;5.60;;;17.50;77.10;;;;;;5142289;27;21089;-87
2022/04/29 09:13:37;;;;;;;6.50;5.80;;;17.70;76.10;;;;;;5139413;27;20625;-87
2022/04/29 09:16:10;;;;;;;6.13;5.30;;;17.80;76.10;;;;;;5136980;27;20645;-87
2022/04/29 09:18:39;;;;;;;6.63;4.77;;;17.70;76.10;;;;;;5135315;27;20614;-87
2022/04/29 09:21:08;;;;;;;7.70;5.90;;;17.70;70.50;;;;;;5142362;27;20720;-87
2022/04/29 09:23:37;;;;;;;6.17;5.63;;;18.00;71.40;;;;;;5138200;27;20626;-87
2022/04/29 09:26:06;;;;;;;5.30;4.80;;;18.10;74.30;;;;;;5144417;27;20649;-88
2022/04/29 09:28:34;;;;;;;4.90;4.20;;;18.20;69.00;;;;;;5139633;27;20629;-87
2022/04/29 09:31:03;;;;;;;5.57;3.90;;;18.50;66.60;;;;;;5145188;27;20694;-87
2022/04/29 09:33:35;;;;;;;3.77;3.40;;;18.70;64.60;;;;;;5135594;27;20638;-87
2022/04/29 09:36:02;;;;;;;4.57;4.17;;;18.90;65.30;;;;;;5141569;27;20733;-87
2022/04/29 09:41:23;;;;;;;5.20;3.80;;;19.30;62.70;;;;;;5141196;27;21050;-87
2022/04/29 09:43:51;;;;;;;3.50;3.30;;;19.40;59.60;;;;;;5145146;27;20652;-86
2022/04/29 09:46:20;;;;;;;3.57;3.27;;;19.50;57.80;;;;;;5143171;27;20617;-86
2022/04/29 09:49:02;;;;;;;4.80;3.67;;;19.70;58.00;;;;;;5143328;27;20640;-86
2022/04/29 09:51:51;;;;;;;3.80;3.50;;;19.80;57.30;;;;;;5142188;27;20605;-86
2022/04/29 09:54:20;;;;;;;3.43;3.17;;;20.00;55.80;;;;;;5138510;27;20637;-86
2022/04/29 09:57:03;;;;;;;3.53;3.23;;;20.20;56.30;;;;;;5133009;27;20621;-87
2022/04/29 09:59:34;;;;;;;3.37;3.07;;;20.50;57.00;;;;;;5140100;27;20635;-87
2022/04/29 10:02:02;;;;;;;3.00;2.63;;;20.60;54.00;;;;;;5140938;27;20629;-87
2022/04/29 10:04:35;;;;;;;3.50;3.20;;;20.80;54.30;;;;;;5137472;27;20646;-87
2022/04/29 10:07:04;;;;;;;5.70;3.13;;;20.90;51.50;;;;;;5143743;27;20626;-87
2022/04/29 10:09:33;;;;;;;3.57;3.27;;;21.00;53.10;;;;;;5137381;27;20658;-87
2022/04/29 10:12:03;;;;;;;4.50;3.33;;;21.20;52.20;;;;;;5140153;27;20630;-87
2022/04/29 10:14:36;;;;;;;4.17;3.30;;;21.10;49.60;;;;;;5141944;27;20664;-87
2022/04/29 10:22:42;;;;;;;3.80;3.00;;;20.70;52.00;;;;;;5138984;27;20586;-87
2022/04/29 10:25:11;;;;;;;3.27;2.97;;;20.70;49.30;;;;;;5145038;27;20745;-87
2022/04/29 10:27:39;;;;;;;5.53;3.13;;;20.80;50.10;;;;;;5141840;27;20620;-87
2022/04/29 10:30:08;;;;;;;3.70;3.20;;;20.90;50.00;;;;;;5142252;27;20701;-87
2022/04/29 10:32:59;;;;;;;4.80;2.90;;;21.10;50.20;;;;;;5148779;27;20606;-87
2022/04/29 10:35:57;;;;;;;4.47;2.80;;;20.80;48.80;;;;;;5140098;27;20791;-87
2022/04/29 10:38:27;;;;;;;3.63;3.27;;;21.00;49.30;;;;;;5148814;27;20625;-87
2022/04/29 10:41:12;;;;;;;4.20;3.87;;;21.00;49.50;;;;;;5144075;27;21012;-87
2022/04/29 10:43:39;;;;;;;4.93;3.40;;;21.20;50.80;;;;;;5146178;27;20648;-88
2022/04/29 10:46:19;;;;;;;5.47;2.97;;;21.50;50.50;;;;;;5142830;27;20643;-87
2022/04/29 10:48:47;;;;;;;3.20;2.90;;;21.80;50.70;;;;;;5143288;27;20631;-86
2022/04/29 10:51:18;;;;;;;3.37;3.13;;;22.10;47.50;;;;;;5143103;27;20665;-86
2022/04/29 10:53:47;;;;;;;4.20;3.90;;;22.00;47.60;;;;;;5145626;27;20620;-86
2022/04/29 10:56:37;;;;;;;5.67;3.27;;;21.60;46.70;;;;;;5140801;27;20648;-86
2022/04/29 10:59:28;;;;;;;3.80;3.40;;;21.50;46.90;;;;;;5145134;27;20634;-86
2022/04/29 11:02:08;;;;;;;3.67;3.37;;;21.80;48.60;;;;;;5120593;27;20774;-87
2022/04/29 11:04:47;;;;;;;6.37;3.27;;;22.00;47.20;;;;;;5142880;27;20707;-87
2022/04/29 11:07:45;;;;;;;7.60;3.13;;;22.10;46.80;;;;;;5142328;27;21253;-87
2022/04/29 11:10:22;;;;;;;3.83;3.00;;;22.20;46.60;;;;;;5141406;27;20681;-87
2022/04/29 11:13:03;;;;;;;3.03;2.83;;;22.80;48.60;;;;;;5140088;27;20621;-87
2022/04/29 11:15:44;;;;;;;3.70;3.50;;;23.10;45.80;;;;;;5142075;27;20654;-88
2022/04/29 11:18:23;;;;;;;6.23;3.80;;;23.00;45.60;;;;;;5143830;27;21042;-87
2022/04/29 11:20:55;;;;;;;3.77;3.20;;;23.30;46.30;;;;;;5152445;27;20648;-88
2022/04/29 11:26:16;;;;;;;3.87;3.50;;;23.90;46.40;;;;;;5150505;27;20609;-89
2022/04/29 11:28:43;;;;;;;3.17;2.87;;;24.40;44.40;;;;;;5154448;27;20620;-89
2022/04/29 11:31:11;;;;;;;3.10;2.90;;;24.70;43.20;;;;;;5146289;27;20653;-89
2022/04/29 11:33:39;;;;;;;2.93;2.73;;;25.10;42.70;;;;;;5146120;27;20660;-88
2022/04/29 11:36:08;;;;;;;3.27;3.00;;;25.40;41.20;;;;;;5144060;27;21207;-87
2022/04/29 11:38:43;;;;;;;3.30;2.80;;;25.40;41.20;;;;;;5137804;27;20643;-88
2022/04/29 11:41:16;;;;;;;3.87;3.57;;;25.10;41.50;;;;;;5148751;27;20688;-88
2022/04/29 11:43:45;;;;;;;3.57;3.20;;;25.10;41.40;;;;;;5142722;27;20702;-88
2022/04/29 11:46:13;;;;;;;5.27;3.60;;;25.10;41.70;;;;;;5143924;27;21233;-88
2022/04/29 11:48:51;;;;;;;5.43;3.10;;;25.00;40.40;;;;;;5141381;27;21209;-88
2022/04/29 11:51:18;;;;;;;3.63;2.50;;;25.00;41.10;;;;;;5142754;27;20694;-88
2022/04/29 11:53:58;;;;;;;3.90;3.50;;;24.90;39.70;;;;;;5142603;27;20617;-88
2022/04/29 11:56:33;;;;;;;3.87;3.13;;;24.70;39.40;;;;;;5136753;27;20629;-88
2022/04/29 11:59:00;;;;;;;3.73;3.53;;;24.50;40.40;;;;;;5145881;27;20625;-89
2022/04/29 12:01:28;;;;;;;4.73;3.37;;;24.60;39.70;;;;;;5141848;27;20690;-88
2022/04/29 12:03:56;;;;;;;3.70;3.33;;;24.60;40.40;;;;;;5142478;27;20613;-89
2022/04/29 12:06:23;;;;;;;3.43;3.20;;;24.30;38.90;;;;;;5141226;27;20618;-88
2022/04/29 12:08:50;;;;;;;2.67;2.53;;;24.10;39.40;;;;;;5140212;27;20621;-88
2022/04/29 12:11:27;;;;;;;3.83;3.50;;;23.90;39.40;;;;;;5139364;27;20650;-88
2022/04/29 12:13:55;;;;;;;3.40;3.10;;;23.90;39.70;;;;;;5141957;27;20719;-88
2022/04/29 12:16:22;;;;;;;3.47;3.23;;;23.50;40.20;;;;;;5143598;27;20715;-88
2022/04/29 12:18:52;;;;;;;3.77;3.47;;;23.20;39.40;;;;;;5139476;27;20612;-88
2022/04/29 12:21:24;;;;;;;4.57;4.17;;;22.90;40.30;;;;;;5140304;27;20713;-88
2022/04/29 12:23:51;;;;;;;3.70;3.40;;;22.90;41.10;;;;;;5143063;27;20584;-87
2022/04/29 12:26:19;;;;;;;3.93;3.50;;;22.70;40.70;;;;;;5144058;27;20967;-87
2022/04/29 12:28:55;;;;;;;3.90;3.60;;;22.70;41.10;;;;;;5139558;27;20629;-87
2022/04/29 12:36:54;;;;;;;4.20;3.70;;;22.90;40.40;;;;;;5140618;27;21285;-88
2022/04/29 12:39:24;;;;;;;3.67;3.33;;;22.80;40.20;;;;;;5142123;27;20666;-88
2022/04/29 12:42:01;;;;;;;3.40;3.10;;;22.80;41.10;;;;;;5144485;27;20627;-87
2022/04/29 12:47:38;;;;;;;3.47;3.27;;;22.50;41.20;;;;;;5144818;27;20950;-87
2022/04/29 12:50:25;;;;;;;5.20;3.90;;;22.80;41.30;;;;;;5141479;27;20621;-88
2022/04/29 12:52:59;;;;;;;3.90;3.43;;;23.00;40.30;;;;;;5136994;27;20629;-88
2022/04/29 12:55:27;;;;;;;4.87;3.27;;;23.20;41.10;;;;;;5138506;27;20665;-88
2022/04/29 12:58:09;;;;;;;5.00;3.63;;;23.50;42.30;;;;;;5141563;27;20652;-87
2022/04/29 13:00:39;;;;;;;3.67;3.37;;;24.00;41.00;;;;;;5143716;27;20627;-88
2022/04/29 13:03:08;;;;;;;6.00;3.53;;;24.60;41.20;;;;;;5141451;27;20632;-88
2022/04/29 13:05:35;;;;;;;3.90;3.60;;;24.80;39.80;;;;;;5141159;27;20649;-88
2022/04/29 13:08:04;;;;;;;6.03;3.97;;;25.10;39.00;;;;;;5142479;27;20618;-87
2022/04/29 13:10:31;;;;;;;4.20;3.80;;;25.30;38.30;;;;;;5137802;27;20734;-88
2022/04/29 13:12:59;;;;;;;3.87;3.57;;;25.70;39.30;;;;;;5143015;27;20617;-89
2022/04/29 13:15:26;;;;;;;4.10;3.80;;;25.80;38.80;;;;;;5144988;27;20745;-88
2022/04/29 13:17:59;;;;;;;4.37;3.60;;;25.80;38.20;;;;;;5140794;27;20963;-88
2022/04/29 13:20:26;;;;;;;4.20;3.90;;;26.30;39.70;;;;;;5142751;27;21035;-88
2022/04/29 13:22:55;;;;;;;5.40;4.20;;;26.70;39.20;;;;;;5143869;27;20617;-88
2022/04/29 13:25:22;;;;;;;4.80;4.30;;;27.20;38.70;;;;;;5135872;27;20658;-88
2022/04/29 13:27:49;;;;;;;4.00;3.73;;;27.30;36.30;;;;;;5144430;27;20657;-88
2022/04/29 13:30:16;;;;;;;4.50;4.10;;;27.50;36.80;;;;;;5141189;27;21071;-88
2022/04/29 13:32:44;;;;;;;6.73;3.50;;;27.50;35.60;;;;;;5143663;27;20621;-87